Brownsville, TX

2:03 AM CDT on October 31, 2014 (GMT -0500)
Brownsville-South Padre I International | Change Station
CLOSE
Current Station
Airport
Location: Brownsville,
Elevation: 20 ft
Nearby Weather Stations

Elev 20 ft 25.91 °N, 97.42 °W | Updated 10 minutes ago

Clear
Clear
70 °F
Feels Like 70 °F
N
0
Wind Variable Wind from North

Today
High -- | Low -- °F
--% Chance of Precip.
Yesterday
High -- | Low -- °F
Precip. -- in
7:37 AM 6:48 PM
First Quarter, 52% visible
Pressure 30.07 in
Visibility 10.0 miles
Clouds Clear
Dew Point 68 °F
Humidity 93%
Rainfall 0.00 in
Snow Depth Not available.
UV 0 out of 12
Pollen 4.50 out of 12
Air Quality Not available.
Flu Activity Not available.
METAR KBRO 310653Z 00000KT 10SM CLR 21/20 A3007 RMK AO2 SLP181 T02110200

More Conditions Fewer Conditions

Pressure 30.07 in
Visibility 10.0 miles
Clouds Clear
Dew Point 68 °F
Humidity 93%
Rainfall 0.00 in
Snow Depth Not available.
UV 0 out of 12
Pollen 4.50 out of 12
Air Quality Not available.
Flu Activity Not available.
METAR KBRO 310653Z 00000KT 10SM CLR 21/20 A3007 RMK AO2 SLP181 T02110200

More Conditions Fewer Conditions

10-Day Weather Forecast

Almanac

Astronomy

Oct. 31, 2014 Rise Set
Actual Time
Civil Twilight
Nautical Twilight
Astronomical Twilight
Moon
Length of Visible Light
Length of Day
Tomorrow will be .
, % of the Moon is Illuminated

Today's Extremes

State Highs State Lows

Community

WunderPhotos

Upload Photos

1,766,571 photos uploaded!

WunderBlogs® & News

Nearby

Air Quality

  Air Quality AQ Index Pollutant
Not available.

Snow Depth

Station Depth Elevation

Earthquake Activity

City Distance Mag. Time & Date
Minimum magnitude displayed is 2.5.

Coastal Water Temperatures

Place Temperature

Nearby Weather Stations